sensor_id;sensor_type;location;lat;lon;timestamp;temperature;humidity
7572;DHT22;3827;49.928;8.548;2024-01-10T00:00:33;-5.50;99.90
7572;DHT22;3827;49.928;8.548;2024-01-10T00:03:00;-5.60;99.90
7572;DHT22;3827;49.928;8.548;2024-01-10T00:05:27;-4.80;99.90
7572;DHT22;3827;49.928;8.548;2024-01-10T00:07:55;-4.90;99.90
7572;DHT22;3827;49.928;8.548;2024-01-10T00:10:23;-5.70;99.90
7572;DHT22;3827;49.928;8.548;2024-01-10T00:12:50;-5.70;99.90
7572;DHT22;3827;49.928;8.548;2024-01-10T00:15:17;-5.70;99.90
7572;DHT22;3827;49.928;8.548;2024-01-10T00:17:44;-5.70;99.90
7572;DHT22;3827;49.928;8.548;2024-01-10T00:20:11;-5.70;99.90
7572;DHT22;3827;49.928;8.548;2024-01-10T00:22:38;-5.70;99.90
7572;DHT22;3827;49.928;8.548;2024-01-10T00:25:05;-5.70;99.90
7572;DHT22;3827;49.928;8.548;2024-01-10T00:27:33;-5.80;99.90
7572;DHT22;3827;49.928;8.548;2024-01-10T00:30:00;-5.70;99.90
7572;DHT22;3827;49.928;8.548;2024-01-10T00:32:27;-5.90;99.90
7572;DHT22;3827;49.928;8.548;2024-01-10T00:34:53;-5.80;99.90
7572;DHT22;3827;49.928;8.548;2024-01-10T00:37:20;-5.80;99.90
7572;DHT22;3827;49.928;8.548;2024-01-10T00:39:47;-5.80;99.90
7572;DHT22;3827;49.928;8.548;2024-01-10T00:42:13;-5.80;99.90
7572;DHT22;3827;49.928;8.548;2024-01-10T00:44:41;-5.80;99.90
7572;DHT22;3827;49.928;8.548;2024-01-10T00:47:11;-5.70;99.90
7572;DHT22;3827;49.928;8.548;2024-01-10T00:49:38;-5.80;99.90
7572;DHT22;3827;49.928;8.548;2024-01-10T00:52:05;-5.80;99.90
7572;DHT22;3827;49.928;8.548;2024-01-10T00:54:31;-5.90;99.90
7572;DHT22;3827;49.928;8.548;2024-01-10T00:56:58;-5.90;99.90
7572;DHT22;3827;49.928;8.548;2024-01-10T00:59:25;-5.90;99.90
7572;DHT22;3827;49.928;8.548;2024-01-10T01:01:53;-5.80;99.90
7572;DHT22;3827;49.928;8.548;2024-01-10T01:04:20;-5.90;99.90
7572;DHT22;3827;49.928;8.548;2024-01-10T01:06:47;-6.00;99.90
7572;DHT22;3827;49.928;8.548;2024-01-10T01:09:13;-5.10;99.90
7572;DHT22;3827;49.928;8.548;2024-01-10T01:11:41;-6.00;99.90
7572;DHT22;3827;49.928;8.548;2024-01-10T01:14:07;-5.70;99.90
7572;DHT22;3827;49.928;8.548;2024-01-10T01:16:34;-4.70;99.90
7572;DHT22;3827;49.928;8.548;2024-01-10T01:19:02;-6.00;99.90
7572;DHT22;3827;49.928;8.548;2024-01-10T01:21:29;-6.00;99.90
7572;DHT22;3827;49.928;8.548;2024-01-10T01:23:56;-5.20;99.90
7572;DHT22;3827;49.928;8.548;2024-01-10T01:26:22;-6.00;99.90
7572;DHT22;3827;49.928;8.548;2024-01-10T01:28:49;-5.30;99.90
7572;DHT22;3827;49.928;8.548;2024-01-10T01:31:16;-6.00;99.90
7572;DHT22;3827;49.928;8.548;2024-01-10T01:33:43;-4.90;99.90
7572;DHT22;3827;49.928;8.548;2024-01-10T01:36:11;-6.10;99.90
7572;DHT22;3827;49.928;8.548;2024-01-10T01:38:38;-6.10;99.90
7572;DHT22;3827;49.928;8.548;2024-01-10T01:41:04;-6.20;99.90
7572;DHT22;3827;49.928;8.548;2024-01-10T01:43:32;-6.10;99.90
7572;DHT22;3827;49.928;8.548;2024-01-10T01:45:59;-5.50;99.90
7572;DHT22;3827;49.928;8.548;2024-01-10T01:48:27;-6.10;99.90
7572;DHT22;3827;49.928;8.548;2024-01-10T01:50:56;-6.70;99.90
7572;DHT22;3827;49.928;8.548;2024-01-10T01:53:25;-5.60;99.90
7572;DHT22;3827;49.928;8.548;2024-01-10T01:55:54;-6.30;99.90
7572;DHT22;3827;49.928;8.548;2024-01-10T01:58:22;-6.10;99.90
7572;DHT22;3827;49.928;8.548;2024-01-10T02:00:50;-5.60;99.90
7572;DHT22;3827;49.928;8.548;2024-01-10T02:03:17;-6.20;99.90
7572;DHT22;3827;49.928;8.548;2024-01-10T02:05:44;-6.30;99.90
7572;DHT22;3827;49.928;8.548;2024-01-10T02:08:13;-7.10;99.90
7572;DHT22;3827;49.928;8.548;2024-01-10T02:10:41;-6.40;99.90
7572;DHT22;3827;49.928;8.548;2024-01-10T02:13:08;-6.30;99.90
7572;DHT22;3827;49.928;8.548;2024-01-10T02:15:37;-6.50;99.90
7572;DHT22;3827;49.928;8.548;2024-01-10T02:18:04;-6.40;99.90
7572;DHT22;3827;49.928;8.548;2024-01-10T02:20:32;-6.40;99.90
7572;DHT22;3827;49.928;8.548;2024-01-10T02:22:58;-6.50;99.90
7572;DHT22;3827;49.928;8.548;2024-01-10T02:25:26;-5.70;99.90
7572;DHT22;3827;49.928;8.548;2024-01-10T02:27:53;-6.30;99.90
7572;DHT22;3827;49.928;8.548;2024-01-10T02:30:20;-6.60;99.90
7572;DHT22;3827;49.928;8.548;2024-01-10T02:32:47;-6.50;99.90
7572;DHT22;3827;49.928;8.548;2024-01-10T02:35:14;-6.60;99.90
7572;DHT22;3827;49.928;8.548;2024-01-10T02:37:40;-6.60;99.90
7572;DHT22;3827;49.928;8.548;2024-01-10T02:40:08;-6.10;99.90
7572;DHT22;3827;49.928;8.548;2024-01-10T02:42:36;-7.50;99.90
7572;DHT22;3827;49.928;8.548;2024-01-10T02:45:04;-6.50;99.90
7572;DHT22;3827;49.928;8.548;2024-01-10T02:47:30;-6.40;99.90
7572;DHT22;3827;49.928;8.548;2024-01-10T02:49:57;-6.20;99.90
7572;DHT22;3827;49.928;8.548;2024-01-10T02:52:24;-6.40;99.90
7572;DHT22;3827;49.928;8.548;2024-01-10T02:54:50;-6.30;99.90
7572;DHT22;3827;49.928;8.548;2024-01-10T02:57:17;-6.40;99.90
7572;DHT22;3827;49.928;8.548;2024-01-10T02:59:45;-6.50;99.90
7572;DHT22;3827;49.928;8.548;2024-01-10T03:02:12;-6.60;99.90
7572;DHT22;3827;49.928;8.548;2024-01-10T03:04:39;-5.30;99.90
7572;DHT22;3827;49.928;8.548;2024-01-10T03:07:06;-6.50;99.90
7572;DHT22;3827;49.928;8.548;2024-01-10T03:09:33;-5.50;99.90
7572;DHT22;3827;49.928;8.548;2024-01-10T03:12:00;-5.70;99.90
7572;DHT22;3827;49.928;8.548;2024-01-10T03:14:26;-6.50;99.90
7572;DHT22;3827;49.928;8.548;2024-01-10T03:16:54;-5.20;99.90
7572;DHT22;3827;49.928;8.548;2024-01-10T03:19:21;-5.60;99.90
7572;DHT22;3827;49.928;8.548;2024-01-10T03:21:48;-6.50;99.90
7572;DHT22;3827;49.928;8.548;2024-01-10T03:24:15;-6.50;99.90
7572;DHT22;3827;49.928;8.548;2024-01-10T03:26:42;-5.10;99.90
7572;DHT22;3827;49.928;8.548;2024-01-10T03:29:09;-6.50;99.90
7572;DHT22;3827;49.928;8.548;2024-01-10T03:31:36;-6.00;99.90
7572;DHT22;3827;49.928;8.548;2024-01-10T03:34:04;-6.40;99.90
7572;DHT22;3827;49.928;8.548;2024-01-10T03:36:31;-7.10;99.90
7572;DHT22;3827;49.928;8.548;2024-01-10T03:38:58;-6.50;99.90
7572;DHT22;3827;49.928;8.548;2024-01-10T03:41:25;-6.60;99.90
7572;DHT22;3827;49.928;8.548;2024-01-10T03:43:51;-5.00;99.90
7572;DHT22;3827;49.928;8.548;2024-01-10T03:46:18;-5.10;99.90
7572;DHT22;3827;49.928;8.548;2024-01-10T03:48:46;-4.90;99.90
7572;DHT22;3827;49.928;8.548;2024-01-10T03:51:15;-6.50;99.90
7572;DHT22;3827;49.928;8.548;2024-01-10T03:53:43;-7.40;99.90
7572;DHT22;3827;49.928;8.548;2024-01-10T03:56:10;-4.80;99.90
7572;DHT22;3827;49.928;8.548;2024-01-10T03:58:38;-6.50;99.90
7572;DHT22;3827;49.928;8.548;2024-01-10T04:01:05;-5.80;99.90
7572;DHT22;3827;49.928;8.548;2024-01-10T04:03:32;-6.20;99.90
7572;DHT22;3827;49.928;8.548;2024-01-10T04:06:00;-6.10;99.90
7572;DHT22;3827;49.928;8.548;2024-01-10T04:08:28;-6.50;99.90
7572;DHT22;3827;49.928;8.548;2024-01-10T04:10:55;-6.50;99.90
7572;DHT22;3827;49.928;8.548;2024-01-10T04:13:21;-6.40;99.90
7572;DHT22;3827;49.928;8.548;2024-01-10T04:15:48;-6.30;99.90
7572;DHT22;3827;49.928;8.548;2024-01-10T04:18:15;-6.40;99.90
7572;DHT22;3827;49.928;8.548;2024-01-10T04:20:42;-6.30;99.90
7572;DHT22;3827;49.928;8.548;2024-01-10T04:23:09;-6.30;99.90
7572;DHT22;3827;49.928;8.548;2024-01-10T04:25:37;-6.00;99.90
7572;DHT22;3827;49.928;8.548;2024-01-10T04:28:05;-6.40;99.90
7572;DHT22;3827;49.928;8.548;2024-01-10T04:30:32;-6.40;99.90
7572;DHT22;3827;49.928;8.548;2024-01-10T04:32:58;-6.30;99.90
7572;DHT22;3827;49.928;8.548;2024-01-10T04:35:25;-6.30;99.90
7572;DHT22;3827;49.928;8.548;2024-01-10T04:37:52;-6.20;99.90
7572;DHT22;3827;49.928;8.548;2024-01-10T04:40:19;-6.30;99.90
7572;DHT22;3827;49.928;8.548;2024-01-10T04:42:47;-6.40;99.90
7572;DHT22;3827;49.928;8.548;2024-01-10T04:45:14;-6.50;99.90
7572;DHT22;3827;49.928;8.548;2024-01-10T04:47:41;-6.40;99.90
7572;DHT22;3827;49.928;8.548;2024-01-10T04:50:08;-6.30;99.90
7572;DHT22;3827;49.928;8.548;2024-01-10T04:52:35;-6.40;99.90
7572;DHT22;3827;49.928;8.548;2024-01-10T04:55:02;-6.50;99.90
7572;DHT22;3827;49.928;8.548;2024-01-10T04:57:31;-6.50;99.90
7572;DHT22;3827;49.928;8.548;2024-01-10T04:59:59;-6.50;99.90
7572;DHT22;3827;49.928;8.548;2024-01-10T05:02:26;-6.60;99.90
7572;DHT22;3827;49.928;8.548;2024-01-10T05:04:53;-6.50;99.90
7572;DHT22;3827;49.928;8.548;2024-01-10T05:07:19;-6.50;99.90
7572;DHT22;3827;49.928;8.548;2024-01-10T05:09:46;-6.50;99.90
7572;DHT22;3827;49.928;8.548;2024-01-10T05:12:13;-6.50;99.90
7572;DHT22;3827;49.928;8.548;2024-01-10T05:14:40;-6.50;99.90
7572;DHT22;3827;49.928;8.548;2024-01-10T05:17:08;-6.70;99.90
7572;DHT22;3827;49.928;8.548;2024-01-10T05:19:34;-6.60;99.90
7572;DHT22;3827;49.928;8.548;2024-01-10T05:22:01;-6.50;99.90
7572;DHT22;3827;49.928;8.548;2024-01-10T05:24:28;-6.40;99.90
7572;DHT22;3827;49.928;8.548;2024-01-10T05:26:55;-6.50;99.90
7572;DHT22;3827;49.928;8.548;2024-01-10T05:29:21;-6.40;99.90
7572;DHT22;3827;49.928;8.548;2024-01-10T05:31:49;-6.60;99.90
7572;DHT22;3827;49.928;8.548;2024-01-10T05:34:17;-6.60;99.90
7572;DHT22;3827;49.928;8.548;2024-01-10T05:36:44;-6.50;99.90
7572;DHT22;3827;49.928;8.548;2024-01-10T05:39:11;-6.50;99.90
7572;DHT22;3827;49.928;8.548;2024-01-10T05:41:41;-6.40;99.90
7572;DHT22;3827;49.928;8.548;2024-01-10T05:44:09;-6.60;99.90
7572;DHT22;3827;49.928;8.548;2024-01-10T05:46:36;-6.60;99.90
7572;DHT22;3827;49.928;8.548;2024-01-10T05:49:02;-6.50;99.90
7572;DHT22;3827;49.928;8.548;2024-01-10T05:51:31;-6.70;99.90
7572;DHT22;3827;49.928;8.548;2024-01-10T05:53:58;-6.70;99.90
7572;DHT22;3827;49.928;8.548;2024-01-10T05:56:24;-6.80;99.90
7572;DHT22;3827;49.928;8.548;2024-01-10T05:58:52;-6.50;99.90
7572;DHT22;3827;49.928;8.548;2024-01-10T06:01:19;-6.60;99.90
7572;DHT22;3827;49.928;8.548;2024-01-10T06:03:46;-6.50;99.90
7572;DHT22;3827;49.928;8.548;2024-01-10T06:06:12;-6.80;99.90
7572;DHT22;3827;49.928;8.548;2024-01-10T06:08:40;-6.30;99.90
7572;DHT22;3827;49.928;8.548;2024-01-10T06:11:07;-6.70;99.90
7572;DHT22;3827;49.928;8.548;2024-01-10T06:13:35;-6.70;99.90
7572;DHT22;3827;49.928;8.548;2024-01-10T06:16:02;-6.70;99.90
7572;DHT22;3827;49.928;8.548;2024-01-10T06:18:29;-6.80;99.90
7572;DHT22;3827;49.928;8.548;2024-01-10T06:20:55;-6.70;99.90
7572;DHT22;3827;49.928;8.548;2024-01-10T06:23:22;-6.70;99.90
7572;DHT22;3827;49.928;8.548;2024-01-10T06:25:50;-6.90;99.90
7572;DHT22;3827;49.928;8.548;2024-01-10T06:28:20;-6.90;99.90
7572;DHT22;3827;49.928;8.548;2024-01-10T06:30:46;-6.80;99.90
7572;DHT22;3827;49.928;8.548;2024-01-10T06:33:13;-6.60;99.90
7572;DHT22;3827;49.928;8.548;2024-01-10T06:35:40;-6.80;99.90
7572;DHT22;3827;49.928;8.548;2024-01-10T06:38:08;-6.70;99.90
7572;DHT22;3827;49.928;8.548;2024-01-10T06:40:35;-6.90;99.90
7572;DHT22;3827;49.928;8.548;2024-01-10T06:43:04;-6.90;99.90
7572;DHT22;3827;49.928;8.548;2024-01-10T06:45:30;-6.80;99.90
7572;DHT22;3827;49.928;8.548;2024-01-10T06:47:57;-6.90;99.90
7572;DHT22;3827;49.928;8.548;2024-01-10T06:50:24;-6.90;99.90
7572;DHT22;3827;49.928;8.548;2024-01-10T06:52:50;-6.90;99.90
7572;DHT22;3827;49.928;8.548;2024-01-10T06:55:17;-6.80;99.90
7572;DHT22;3827;49.928;8.548;2024-01-10T06:57:44;-6.70;99.90
7572;DHT22;3827;49.928;8.548;2024-01-10T07:00:14;-6.70;99.90
7572;DHT22;3827;49.928;8.548;2024-01-10T07:02:43;-6.70;99.90
7572;DHT22;3827;49.928;8.548;2024-01-10T07:05:10;-6.70;99.90
7572;DHT22;3827;49.928;8.548;2024-01-10T07:07:36;-6.60;99.90
7572;DHT22;3827;49.928;8.548;2024-01-10T07:10:04;-6.70;99.90
7572;DHT22;3827;49.928;8.548;2024-01-10T07:12:31;-6.70;99.90
7572;DHT22;3827;49.928;8.548;2024-01-10T07:14:58;-6.10;99.90
7572;DHT22;3827;49.928;8.548;2024-01-10T07:17:26;-6.40;99.90
7572;DHT22;3827;49.928;8.548;2024-01-10T07:19:53;-6.50;99.90
7572;DHT22;3827;49.928;8.548;2024-01-10T07:22:22;-6.50;99.90
7572;DHT22;3827;49.928;8.548;2024-01-10T07:24:49;-6.60;99.90
7572;DHT22;3827;49.928;8.548;2024-01-10T07:27:16;-6.50;99.90
7572;DHT22;3827;49.928;8.548;2024-01-10T07:29:44;-6.60;99.90
7572;DHT22;3827;49.928;8.548;2024-01-10T07:32:11;-6.50;99.90
7572;DHT22;3827;49.928;8.548;2024-01-10T07:34:40;-6.40;99.90
7572;DHT22;3827;49.928;8.548;2024-01-10T07:37:07;-6.20;99.90
7572;DHT22;3827;49.928;8.548;2024-01-10T07:39:34;-6.30;99.90
7572;DHT22;3827;49.928;8.548;2024-01-10T07:42:01;-6.40;99.90
7572;DHT22;3827;49.928;8.548;2024-01-10T07:44:28;-6.10;99.90
7572;DHT22;3827;49.928;8.548;2024-01-10T07:46:55;-6.50;99.90
7572;DHT22;3827;49.928;8.548;2024-01-10T07:49:21;-6.30;99.90
7572;DHT22;3827;49.928;8.548;2024-01-10T07:51:50;-6.40;99.90
7572;DHT22;3827;49.928;8.548;2024-01-10T07:54:17;-6.50;99.90
7572;DHT22;3827;49.928;8.548;2024-01-10T07:56:44;-6.50;99.90
7572;DHT22;3827;49.928;8.548;2024-01-10T07:59:11;-6.50;99.90
7572;DHT22;3827;49.928;8.548;2024-01-10T08:01:40;-3.90;99.90
7572;DHT22;3827;49.928;8.548;2024-01-10T08:04:07;-6.20;99.90
7572;DHT22;3827;49.928;8.548;2024-01-10T08:06:34;-6.00;99.90
7572;DHT22;3827;49.928;8.548;2024-01-10T08:09:03;-6.00;99.90
7572;DHT22;3827;49.928;8.548;2024-01-10T08:11:30;-5.90;99.90
7572;DHT22;3827;49.928;8.548;2024-01-10T08:13:56;-6.00;99.90
7572;DHT22;3827;49.928;8.548;2024-01-10T08:16:23;-5.90;99.90
7572;DHT22;3827;49.928;8.548;2024-01-10T08:18:50;-6.00;99.90
7572;DHT22;3827;49.928;8.548;2024-01-10T08:21:17;-5.70;99.90
7572;DHT22;3827;49.928;8.548;2024-01-10T08:23:44;-5.80;99.90
7572;DHT22;3827;49.928;8.548;2024-01-10T08:26:12;-5.30;99.90
7572;DHT22;3827;49.928;8.548;2024-01-10T08:28:39;-5.50;99.90
7572;DHT22;3827;49.928;8.548;2024-01-10T08:31:08;-5.60;99.90
7572;DHT22;3827;49.928;8.548;2024-01-10T08:33:35;-5.20;99.90
7572;DHT22;3827;49.928;8.548;2024-01-10T08:36:01;-5.20;99.90
7572;DHT22;3827;49.928;8.548;2024-01-10T08:38:28;-5.00;99.90
7572;DHT22;3827;49.928;8.548;2024-01-10T08:40:55;-5.10;99.90
7572;DHT22;3827;49.928;8.548;2024-01-10T08:43:23;-4.20;99.90
7572;DHT22;3827;49.928;8.548;2024-01-10T08:45:50;-5.00;99.90
7572;DHT22;3827;49.928;8.548;2024-01-10T08:48:17;-5.10;99.90
7572;DHT22;3827;49.928;8.548;2024-01-10T08:50:43;-5.10;99.90
7572;DHT22;3827;49.928;8.548;2024-01-10T08:53:10;-5.00;99.90
7572;DHT22;3827;49.928;8.548;2024-01-10T08:55:37;-5.00;99.90
7572;DHT22;3827;49.928;8.548;2024-01-10T08:58:04;-4.80;99.90
7572;DHT22;3827;49.928;8.548;2024-01-10T09:00:32;-4.80;99.90
7572;DHT22;3827;49.928;8.548;2024-01-10T09:03:00;-4.50;99.90
7572;DHT22;3827;49.928;8.548;2024-01-10T09:05:27;-4.60;99.90
7572;DHT22;3827;49.928;8.548;2024-01-10T09:07:53;-4.50;99.90
7572;DHT22;3827;49.928;8.548;2024-01-10T09:10:20;-4.40;99.90
7572;DHT22;3827;49.928;8.548;2024-01-10T09:12:48;-4.40;99.90
7572;DHT22;3827;49.928;8.548;2024-01-10T09:15:15;-4.20;99.90
7572;DHT22;3827;49.928;8.548;2024-01-10T09:17:44;-4.30;99.90
7572;DHT22;3827;49.928;8.548;2024-01-10T09:20:12;-4.40;99.90
7572;DHT22;3827;49.928;8.548;2024-01-10T09:22:39;-4.40;99.90
7572;DHT22;3827;49.928;8.548;2024-01-10T09:25:06;-4.20;99.90
7572;DHT22;3827;49.928;8.548;2024-01-10T09:27:35;-2.70;99.90
7572;DHT22;3827;49.928;8.548;2024-01-10T09:30:02;-4.20;99.90
7572;DHT22;3827;49.928;8.548;2024-01-10T09:32:34;-4.10;99.90
7572;DHT22;3827;49.928;8.548;2024-01-10T09:35:03;-4.20;99.90
7572;DHT22;3827;49.928;8.548;2024-01-10T09:37:30;-4.10;99.90
7572;DHT22;3827;49.928;8.548;2024-01-10T09:39:57;-4.00;99.90
7572;DHT22;3827;49.928;8.548;2024-01-10T09:42:24;-4.00;99.90
7572;DHT22;3827;49.928;8.548;2024-01-10T09:44:52;-3.90;99.90
7572;DHT22;3827;49.928;8.548;2024-01-10T09:47:20;-3.70;99.90
7572;DHT22;3827;49.928;8.548;2024-01-10T09:49:47;-0.40;99.90
7572;DHT22;3827;49.928;8.548;2024-01-10T09:52:21;-2.90;99.90
7572;DHT22;3827;49.928;8.548;2024-01-10T09:54:51;-2.10;99.90
7572;DHT22;3827;49.928;8.548;2024-01-10T09:57:18;-3.40;99.90
7572;DHT22;3827;49.928;8.548;2024-01-10T09:59:47;-3.40;99.90
7572;DHT22;3827;49.928;8.548;2024-01-10T10:02:17;-3.40;99.90
7572;DHT22;3827;49.928;8.548;2024-01-10T10:04:51;-3.30;99.90
7572;DHT22;3827;49.928;8.548;2024-01-10T10:07:21;-3.00;99.90
7572;DHT22;3827;49.928;8.548;2024-01-10T10:09:48;-3.20;99.90
7572;DHT22;3827;49.928;8.548;2024-01-10T10:12:15;-3.30;99.90
7572;DHT22;3827;49.928;8.548;2024-01-10T10:14:42;-3.30;99.90
7572;DHT22;3827;49.928;8.548;2024-01-10T10:17:15;-3.20;99.90
7572;DHT22;3827;49.928;8.548;2024-01-10T10:19:43;-3.10;99.90
7572;DHT22;3827;49.928;8.548;2024-01-10T10:22:10;-2.40;99.90
7572;DHT22;3827;49.928;8.548;2024-01-10T10:24:39;-3.00;99.90
7572;DHT22;3827;49.928;8.548;2024-01-10T10:27:08;-3.00;99.90
7572;DHT22;3827;49.928;8.548;2024-01-10T10:29:36;-2.80;99.90
7572;DHT22;3827;49.928;8.548;2024-01-10T10:32:03;-2.80;99.90
7572;DHT22;3827;49.928;8.548;2024-01-10T10:34:31;-2.70;99.90
7572;DHT22;3827;49.928;8.548;2024-01-10T10:36:58;-2.80;99.90
7572;DHT22;3827;49.928;8.548;2024-01-10T10:39:25;-2.70;99.90
7572;DHT22;3827;49.928;8.548;2024-01-10T10:41:53;-1.00;99.90
7572;DHT22;3827;49.928;8.548;2024-01-10T10:44:24;-2.60;99.90
7572;DHT22;3827;49.928;8.548;2024-01-10T10:46:53;-2.50;99.90
7572;DHT22;3827;49.928;8.548;2024-01-10T10:49:28;-2.10;99.90
7572;DHT22;3827;49.928;8.548;2024-01-10T10:51:59;-1.90;99.90
7572;DHT22;3827;49.928;8.548;2024-01-10T10:54:28;-2.00;99.90
7572;DHT22;3827;49.928;8.548;2024-01-10T10:57:01;-1.80;99.90
7572;DHT22;3827;49.928;8.548;2024-01-10T10:59:29;-0.70;99.90
7572;DHT22;3827;49.928;8.548;2024-01-10T11:02:00;-1.20;99.90
7572;DHT22;3827;49.928;8.548;2024-01-10T11:04:28;-1.90;99.90
7572;DHT22;3827;49.928;8.548;2024-01-10T11:06:55;-1.80;99.90
7572;DHT22;3827;49.928;8.548;2024-01-10T11:09:22;-1.90;99.90
7572;DHT22;3827;49.928;8.548;2024-01-10T11:12:03;-1.50;99.90
7572;DHT22;3827;49.928;8.548;2024-01-10T11:14:46;-1.00;99.90
7572;DHT22;3827;49.928;8.548;2024-01-10T11:17:51;-1.30;99.90
7572;DHT22;3827;49.928;8.548;2024-01-10T11:20:36;-1.20;99.90
7572;DHT22;3827;49.928;8.548;2024-01-10T11:23:31;-0.30;99.90
7572;DHT22;3827;49.928;8.548;2024-01-10T11:26:02;-1.00;99.90
7572;DHT22;3827;49.928;8.548;2024-01-10T11:28:31;-0.90;99.90
7572;DHT22;3827;49.928;8.548;2024-01-10T11:30:58;-0.60;99.90
7572;DHT22;3827;49.928;8.548;2024-01-10T11:33:30;-0.70;99.90
7572;DHT22;3827;49.928;8.548;2024-01-10T11:36:15;-0.80;99.90
7572;DHT22;3827;49.928;8.548;2024-01-10T11:38:43;-0.70;99.90
7572;DHT22;3827;49.928;8.548;2024-01-10T11:41:19;-0.50;99.90
7572;DHT22;3827;49.928;8.548;2024-01-10T11:46:54;-0.50;99.90
7572;DHT22;3827;49.928;8.548;2024-01-10T11:49:22;-0.80;99.90
7572;DHT22;3827;49.928;8.548;2024-01-10T11:51:52;-0.70;99.90
7572;DHT22;3827;49.928;8.548;2024-01-10T11:54:39;-0.90;99.90
7572;DHT22;3827;49.928;8.548;2024-01-10T11:57:25;-0.70;99.90
7572;DHT22;3827;49.928;8.548;2024-01-10T11:59:55;-0.70;99.90
7572;DHT22;3827;49.928;8.548;2024-01-10T12:02:22;-0.70;99.90
7572;DHT22;3827;49.928;8.548;2024-01-10T12:04:51;-0.50;99.90
7572;DHT22;3827;49.928;8.548;2024-01-10T12:07:18;-0.30;99.90
7572;DHT22;3827;49.928;8.548;2024-01-10T12:09:46;-0.40;99.90
7572;DHT22;3827;49.928;8.548;2024-01-10T12:12:13;-0.10;99.90
7572;DHT22;3827;49.928;8.548;2024-01-10T12:14:41;-0.40;99.90
7572;DHT22;3827;49.928;8.548;2024-01-10T12:17:10;-0.20;99.90
7572;DHT22;3827;49.928;8.548;2024-01-10T12:19:37;-0.10;99.90
7572;DHT22;3827;49.928;8.548;2024-01-10T12:22:04;0.40;99.90
7572;DHT22;3827;49.928;8.548;2024-01-10T12:24:32;1.00;99.90
7572;DHT22;3827;49.928;8.548;2024-01-10T12:26:58;1.20;99.90
7572;DHT22;3827;49.928;8.548;2024-01-10T12:29:25;1.20;99.90
7572;DHT22;3827;49.928;8.548;2024-01-10T12:31:53;1.50;99.90
7572;DHT22;3827;49.928;8.548;2024-01-10T12:34:21;1.60;99.90
7572;DHT22;3827;49.928;8.548;2024-01-10T12:36:48;1.60;99.90
7572;DHT22;3827;49.928;8.548;2024-01-10T12:39:15;1.50;99.90
7572;DHT22;3827;49.928;8.548;2024-01-10T12:41:42;1.30;99.90
7572;DHT22;3827;49.928;8.548;2024-01-10T12:44:10;1.70;99.90
7572;DHT22;3827;49.928;8.548;2024-01-10T12:46:49;1.70;99.90
7572;DHT22;3827;49.928;8.548;2024-01-10T12:49:17;1.60;99.90
7572;DHT22;3827;49.928;8.548;2024-01-10T12:51:47;1.20;99.90
7572;DHT22;3827;49.928;8.548;2024-01-10T12:54:15;0.90;99.90
7572;DHT22;3827;49.928;8.548;2024-01-10T12:56:42;0.60;99.90
7572;DHT22;3827;49.928;8.548;2024-01-10T12:59:09;0.30;99.90
7572;DHT22;3827;49.928;8.548;2024-01-10T13:01:36;0.40;99.90
7572;DHT22;3827;49.928;8.548;2024-01-10T13:04:03;0.20;99.90
7572;DHT22;3827;49.928;8.548;2024-01-10T13:06:30;-0.10;99.90
7572;DHT22;3827;49.928;8.548;2024-01-10T13:08:58;-0.30;99.90
7572;DHT22;3827;49.928;8.548;2024-01-10T13:11:25;-0.20;99.90
7572;DHT22;3827;49.928;8.548;2024-01-10T13:13:52;-0.20;99.90
7572;DHT22;3827;49.928;8.548;2024-01-10T13:16:19;-0.10;99.90
7572;DHT22;3827;49.928;8.548;2024-01-10T13:18:45;0.30;99.90
7572;DHT22;3827;49.928;8.548;2024-01-10T13:21:12;0.30;99.90
7572;DHT22;3827;49.928;8.548;2024-01-10T13:23:39;0.40;99.90
7572;DHT22;3827;49.928;8.548;2024-01-10T13:26:08;0.80;99.90
7572;DHT22;3827;49.928;8.548;2024-01-10T13:28:36;0.60;99.90
7572;DHT22;3827;49.928;8.548;2024-01-10T13:31:03;0.80;99.90
7572;DHT22;3827;49.928;8.548;2024-01-10T13:33:30;0.90;99.90
7572;DHT22;3827;49.928;8.548;2024-01-10T13:35:57;0.80;99.90
7572;DHT22;3827;49.928;8.548;2024-01-10T13:38:24;0.90;99.90
7572;DHT22;3827;49.928;8.548;2024-01-10T13:40:51;0.90;99.90
7572;DHT22;3827;49.928;8.548;2024-01-10T13:43:20;0.50;99.90
7572;DHT22;3827;49.928;8.548;2024-01-10T13:45:46;0.40;99.90
7572;DHT22;3827;49.928;8.548;2024-01-10T13:48:13;0.20;99.90
7572;DHT22;3827;49.928;8.548;2024-01-10T13:50:40;1.30;99.90
7572;DHT22;3827;49.928;8.548;2024-01-10T13:53:07;0.10;99.90
7572;DHT22;3827;49.928;8.548;2024-01-10T13:55:34;0.00;99.90
7572;DHT22;3827;49.928;8.548;2024-01-10T13:58:01;-0.20;99.90
7572;DHT22;3827;49.928;8.548;2024-01-10T14:00:30;0.40;99.90
7572;DHT22;3827;49.928;8.548;2024-01-10T14:02:57;-0.20;99.90
7572;DHT22;3827;49.928;8.548;2024-01-10T14:05:26;0.00;99.90
7572;DHT22;3827;49.928;8.548;2024-01-10T14:07:53;-0.20;99.90
7572;DHT22;3827;49.928;8.548;2024-01-10T14:10:20;-0.10;99.90
7572;DHT22;3827;49.928;8.548;2024-01-10T14:12:47;-0.30;99.90
7572;DHT22;3827;49.928;8.548;2024-01-10T14:15:14;-0.50;99.90
7572;DHT22;3827;49.928;8.548;2024-01-10T14:17:42;-0.40;99.90
7572;DHT22;3827;49.928;8.548;2024-01-10T14:20:10;-0.40;99.90
7572;DHT22;3827;49.928;8.548;2024-01-10T14:22:38;-0.50;99.90
7572;DHT22;3827;49.928;8.548;2024-01-10T14:25:07;0.00;99.90
7572;DHT22;3827;49.928;8.548;2024-01-10T14:27:35;-0.50;99.90
7572;DHT22;3827;49.928;8.548;2024-01-10T14:30:05;-0.50;99.90
7572;DHT22;3827;49.928;8.548;2024-01-10T14:32:34;-0.50;99.90
7572;DHT22;3827;49.928;8.548;2024-01-10T14:35:03;-0.60;99.90
7572;DHT22;3827;49.928;8.548;2024-01-10T14:37:30;-0.50;99.90
7572;DHT22;3827;49.928;8.548;2024-01-10T14:39:57;-0.60;99.90
7572;DHT22;3827;49.928;8.548;2024-01-10T14:42:24;-0.60;99.90
7572;DHT22;3827;49.928;8.548;2024-01-10T14:44:51;-0.60;99.90
7572;DHT22;3827;49.928;8.548;2024-01-10T14:47:18;-0.70;99.90
7572;DHT22;3827;49.928;8.548;2024-01-10T14:49:45;-0.60;99.90
7572;DHT22;3827;49.928;8.548;2024-01-10T14:52:13;-0.70;99.90
7572;DHT22;3827;49.928;8.548;2024-01-10T14:54:40;-0.80;99.90
7572;DHT22;3827;49.928;8.548;2024-01-10T14:57:07;-0.80;99.90
7572;DHT22;3827;49.928;8.548;2024-01-10T14:59:34;-0.70;99.90
7572;DHT22;3827;49.928;8.548;2024-01-10T15:02:03;-0.70;99.90
7572;DHT22;3827;49.928;8.548;2024-01-10T15:04:37;-0.90;99.90
7572;DHT22;3827;49.928;8.548;2024-01-10T15:07:04;-0.80;99.90
7572;DHT22;3827;49.928;8.548;2024-01-10T15:09:33;0.60;99.90
7572;DHT22;3827;49.928;8.548;2024-01-10T15:12:03;-0.90;99.90
7572;DHT22;3827;49.928;8.548;2024-01-10T15:14:31;-1.10;99.90
7572;DHT22;3827;49.928;8.548;2024-01-10T15:16:58;-1.10;99.90
7572;DHT22;3827;49.928;8.548;2024-01-10T15:19:26;-1.20;99.90
7572;DHT22;3827;49.928;8.548;2024-01-10T15:21:53;-1.30;99.90
7572;DHT22;3827;49.928;8.548;2024-01-10T15:24:19;-1.30;99.90
7572;DHT22;3827;49.928;8.548;2024-01-10T15:26:48;-1.40;99.90
7572;DHT22;3827;49.928;8.548;2024-01-10T15:29:16;-1.30;99.90
7572;DHT22;3827;49.928;8.548;2024-01-10T15:31:43;-1.60;99.90
7572;DHT22;3827;49.928;8.548;2024-01-10T15:34:10;-1.40;99.90
7572;DHT22;3827;49.928;8.548;2024-01-10T15:36:39;-1.60;99.90
7572;DHT22;3827;49.928;8.548;2024-01-10T15:39:06;-1.70;99.90
7572;DHT22;3827;49.928;8.548;2024-01-10T15:41:33;-1.70;99.90
7572;DHT22;3827;49.928;8.548;2024-01-10T15:44:01;-1.90;99.90
7572;DHT22;3827;49.928;8.548;2024-01-10T15:46:28;-1.80;99.90
7572;DHT22;3827;49.928;8.548;2024-01-10T15:48:55;-1.20;99.90
7572;DHT22;3827;49.928;8.548;2024-01-10T15:51:22;-2.00;99.90
7572;DHT22;3827;49.928;8.548;2024-01-10T15:53:49;-2.20;99.90
7572;DHT22;3827;49.928;8.548;2024-01-10T15:56:18;-2.30;99.90
7572;DHT22;3827;49.928;8.548;2024-01-10T15:58:46;-2.20;99.90
7572;DHT22;3827;49.928;8.548;2024-01-10T16:01:15;-2.30;99.90
7572;DHT22;3827;49.928;8.548;2024-01-10T16:03:42;-2.30;99.90
7572;DHT22;3827;49.928;8.548;2024-01-10T16:06:09;-2.30;99.90
7572;DHT22;3827;49.928;8.548;2024-01-10T16:08:36;-2.30;99.90